sensor_id;sensor_type;location;lat;lon;timestamp;temperature;humidity
56771;DHT22;42641;59.794;17.616;2022-07-18T00:00:40;16.60;96.20
56771;DHT22;42641;59.794;17.616;2022-07-18T00:03:07;16.60;96.30
56771;DHT22;42641;59.794;17.616;2022-07-18T00:05:33;16.60;96.50
56771;DHT22;42641;59.794;17.616;2022-07-18T00:08:00;16.60;96.40
56771;DHT22;42641;59.794;17.616;2022-07-18T00:10:26;16.60;96.30
56771;DHT22;42641;59.794;17.616;2022-07-18T00:12:52;16.60;96.60
56771;DHT22;42641;59.794;17.616;2022-07-18T00:15:19;16.60;96.60
56771;DHT22;42641;59.794;17.616;2022-07-18T00:17:45;16.50;96.60
56771;DHT22;42641;59.794;17.616;2022-07-18T00:20:11;16.50;96.70
56771;DHT22;42641;59.794;17.616;2022-07-18T00:22:38;16.40;97.20
56771;DHT22;42641;59.794;17.616;2022-07-18T00:25:05;16.30;98.10
56771;DHT22;42641;59.794;17.616;2022-07-18T00:27:32;16.30;98.50
56771;DHT22;42641;59.794;17.616;2022-07-18T00:29:59;16.20;98.60
56771;DHT22;42641;59.794;17.616;2022-07-18T00:32:25;16.10;99.20
56771;DHT22;42641;59.794;17.616;2022-07-18T00:34:51;16.00;99.70
56771;DHT22;42641;59.794;17.616;2022-07-18T00:37:18;15.90;99.80
56771;DHT22;42641;59.794;17.616;2022-07-18T00:39:44;15.90;99.60
56771;DHT22;42641;59.794;17.616;2022-07-18T00:42:10;15.80;99.90
56771;DHT22;42641;59.794;17.616;2022-07-18T00:44:37;15.70;99.90
56771;DHT22;42641;59.794;17.616;2022-07-18T00:47:04;15.60;99.90
56771;DHT22;42641;59.794;17.616;2022-07-18T00:49:30;15.50;99.90
56771;DHT22;42641;59.794;17.616;2022-07-18T00:51:57;15.40;99.90
56771;DHT22;42641;59.794;17.616;2022-07-18T00:54:24;15.30;99.90
56771;DHT22;42641;59.794;17.616;2022-07-18T00:56:51;15.30;99.90
56771;DHT22;42641;59.794;17.616;2022-07-18T00:59:18;15.20;99.90
56771;DHT22;42641;59.794;17.616;2022-07-18T01:01:45;15.20;99.90
56771;DHT22;42641;59.794;17.616;2022-07-18T01:04:19;15.10;99.90
56771;DHT22;42641;59.794;17.616;2022-07-18T01:06:47;15.10;99.90
56771;DHT22;42641;59.794;17.616;2022-07-18T01:09:15;15.00;99.90
56771;DHT22;42641;59.794;17.616;2022-07-18T01:11:43;14.90;99.90
56771;DHT22;42641;59.794;17.616;2022-07-18T01:14:10;14.80;99.90
56771;DHT22;42641;59.794;17.616;2022-07-18T01:16:36;14.80;99.90
56771;DHT22;42641;59.794;17.616;2022-07-18T01:19:03;14.70;99.90
56771;DHT22;42641;59.794;17.616;2022-07-18T01:21:30;14.70;99.90
56771;DHT22;42641;59.794;17.616;2022-07-18T01:23:57;14.70;99.90
56771;DHT22;42641;59.794;17.616;2022-07-18T01:26:24;14.70;99.90
56771;DHT22;42641;59.794;17.616;2022-07-18T01:28:51;14.70;99.90
56771;DHT22;42641;59.794;17.616;2022-07-18T01:31:17;14.60;99.90
56771;DHT22;42641;59.794;17.616;2022-07-18T01:33:44;14.60;99.90
56771;DHT22;42641;59.794;17.616;2022-07-18T01:36:10;14.50;99.90
56771;DHT22;42641;59.794;17.616;2022-07-18T01:38:37;14.50;99.90
56771;DHT22;42641;59.794;17.616;2022-07-18T01:41:04;14.50;99.90
56771;DHT22;42641;59.794;17.616;2022-07-18T01:43:31;14.40;99.90
56771;DHT22;42641;59.794;17.616;2022-07-18T01:45:58;14.30;99.90
56771;DHT22;42641;59.794;17.616;2022-07-18T01:48:24;14.30;99.90
56771;DHT22;42641;59.794;17.616;2022-07-18T01:50:52;14.20;99.90
56771;DHT22;42641;59.794;17.616;2022-07-18T01:53:18;14.20;99.90
56771;DHT22;42641;59.794;17.616;2022-07-18T01:55:45;14.20;99.90
56771;DHT22;42641;59.794;17.616;2022-07-18T01:58:11;14.10;99.90
56771;DHT22;42641;59.794;17.616;2022-07-18T02:00:38;14.00;99.90
56771;DHT22;42641;59.794;17.616;2022-07-18T02:03:04;14.00;99.90
56771;DHT22;42641;59.794;17.616;2022-07-18T02:05:31;13.90;99.90
56771;DHT22;42641;59.794;17.616;2022-07-18T02:07:57;13.80;99.90
56771;DHT22;42641;59.794;17.616;2022-07-18T02:10:24;13.80;99.90
56771;DHT22;42641;59.794;17.616;2022-07-18T02:12:50;13.80;99.90
56771;DHT22;42641;59.794;17.616;2022-07-18T02:15:17;13.80;99.90
56771;DHT22;42641;59.794;17.616;2022-07-18T02:17:43;13.80;99.90
56771;DHT22;42641;59.794;17.616;2022-07-18T02:20:11;13.70;99.90
56771;DHT22;42641;59.794;17.616;2022-07-18T02:22:38;13.70;99.90
56771;DHT22;42641;59.794;17.616;2022-07-18T02:25:05;13.80;99.90
56771;DHT22;42641;59.794;17.616;2022-07-18T02:27:32;13.80;99.90
56771;DHT22;42641;59.794;17.616;2022-07-18T02:29:58;13.70;99.90
56771;DHT22;42641;59.794;17.616;2022-07-18T02:32:24;13.70;99.90
56771;DHT22;42641;59.794;17.616;2022-07-18T02:34:51;13.50;99.90
56771;DHT22;42641;59.794;17.616;2022-07-18T02:37:17;13.50;99.90
56771;DHT22;42641;59.794;17.616;2022-07-18T02:39:44;13.50;99.90
56771;DHT22;42641;59.794;17.616;2022-07-18T02:42:10;13.60;99.90
56771;DHT22;42641;59.794;17.616;2022-07-18T02:44:37;13.60;99.90
56771;DHT22;42641;59.794;17.616;2022-07-18T02:47:04;13.60;99.90
56771;DHT22;42641;59.794;17.616;2022-07-18T02:49:30;13.60;99.90
56771;DHT22;42641;59.794;17.616;2022-07-18T02:54:25;13.80;99.90
56771;DHT22;42641;59.794;17.616;2022-07-18T02:56:52;13.80;99.90
56771;DHT22;42641;59.794;17.616;2022-07-18T02:59:19;13.90;99.90
56771;DHT22;42641;59.794;17.616;2022-07-18T03:01:46;14.00;99.90
56771;DHT22;42641;59.794;17.616;2022-07-18T03:04:16;14.00;99.90
56771;DHT22;42641;59.794;17.616;2022-07-18T03:06:42;14.10;99.90
56771;DHT22;42641;59.794;17.616;2022-07-18T03:09:08;14.20;99.90
56771;DHT22;42641;59.794;17.616;2022-07-18T03:11:35;14.30;99.90
56771;DHT22;42641;59.794;17.616;2022-07-18T03:14:01;14.40;99.90
56771;DHT22;42641;59.794;17.616;2022-07-18T03:16:28;14.50;99.90
56771;DHT22;42641;59.794;17.616;2022-07-18T03:18:55;14.50;99.90
56771;DHT22;42641;59.794;17.616;2022-07-18T03:21:22;14.60;99.90
56771;DHT22;42641;59.794;17.616;2022-07-18T03:23:48;14.70;99.90
56771;DHT22;42641;59.794;17.616;2022-07-18T03:26:15;14.90;99.90
56771;DHT22;42641;59.794;17.616;2022-07-18T03:28:41;15.00;99.90
56771;DHT22;42641;59.794;17.616;2022-07-18T03:31:08;15.00;99.90
56771;DHT22;42641;59.794;17.616;2022-07-18T03:33:34;15.10;99.90
56771;DHT22;42641;59.794;17.616;2022-07-18T03:36:00;15.20;99.90
56771;DHT22;42641;59.794;17.616;2022-07-18T03:38:27;15.40;99.90
56771;DHT22;42641;59.794;17.616;2022-07-18T03:40:53;15.60;99.90
56771;DHT22;42641;59.794;17.616;2022-07-18T03:43:19;15.70;99.90
56771;DHT22;42641;59.794;17.616;2022-07-18T03:45:47;15.80;99.90
56771;DHT22;42641;59.794;17.616;2022-07-18T03:48:14;15.90;99.90
56771;DHT22;42641;59.794;17.616;2022-07-18T03:50:40;15.90;99.90
56771;DHT22;42641;59.794;17.616;2022-07-18T03:53:07;16.00;99.90
56771;DHT22;42641;59.794;17.616;2022-07-18T03:55:33;16.00;99.90
56771;DHT22;42641;59.794;17.616;2022-07-18T03:57:59;16.00;99.90
56771;DHT22;42641;59.794;17.616;2022-07-18T04:00:26;16.00;99.90
56771;DHT22;42641;59.794;17.616;2022-07-18T04:02:52;16.10;99.90
56771;DHT22;42641;59.794;17.616;2022-07-18T04:05:19;16.10;99.90
56771;DHT22;42641;59.794;17.616;2022-07-18T04:07:45;16.20;99.90
56771;DHT22;42641;59.794;17.616;2022-07-18T04:10:12;16.20;99.90
56771;DHT22;42641;59.794;17.616;2022-07-18T04:12:49;16.10;99.90
56771;DHT22;42641;59.794;17.616;2022-07-18T04:15:17;16.20;99.90
56771;DHT22;42641;59.794;17.616;2022-07-18T04:17:44;16.30;99.90
56771;DHT22;42641;59.794;17.616;2022-07-18T04:20:11;16.30;99.90
56771;DHT22;42641;59.794;17.616;2022-07-18T04:22:52;16.40;99.90
56771;DHT22;42641;59.794;17.616;2022-07-18T04:25:21;16.50;99.90
56771;DHT22;42641;59.794;17.616;2022-07-18T04:27:48;16.60;99.90
56771;DHT22;42641;59.794;17.616;2022-07-18T04:30:17;16.60;99.90
56771;DHT22;42641;59.794;17.616;2022-07-18T04:32:43;16.60;99.90
56771;DHT22;42641;59.794;17.616;2022-07-18T04:35:10;16.70;99.90
56771;DHT22;42641;59.794;17.616;2022-07-18T04:37:40;16.80;99.90
56771;DHT22;42641;59.794;17.616;2022-07-18T04:40:08;17.00;99.90
56771;DHT22;42641;59.794;17.616;2022-07-18T04:42:36;17.10;99.90
56771;DHT22;42641;59.794;17.616;2022-07-18T04:45:03;17.30;99.90
56771;DHT22;42641;59.794;17.616;2022-07-18T04:47:31;17.50;99.90
56771;DHT22;42641;59.794;17.616;2022-07-18T04:49:57;17.60;99.90
56771;DHT22;42641;59.794;17.616;2022-07-18T04:52:24;17.70;99.90
56771;DHT22;42641;59.794;17.616;2022-07-18T04:54:50;17.80;99.90
56771;DHT22;42641;59.794;17.616;2022-07-18T04:57:17;17.80;99.90
56771;DHT22;42641;59.794;17.616;2022-07-18T04:59:44;17.90;99.90
56771;DHT22;42641;59.794;17.616;2022-07-18T05:02:11;17.90;99.90
56771;DHT22;42641;59.794;17.616;2022-07-18T05:04:38;18.00;99.90
56771;DHT22;42641;59.794;17.616;2022-07-18T05:07:06;18.00;99.90
56771;DHT22;42641;59.794;17.616;2022-07-18T05:09:35;18.00;99.90
56771;DHT22;42641;59.794;17.616;2022-07-18T05:12:02;17.90;99.90
56771;DHT22;42641;59.794;17.616;2022-07-18T05:14:28;17.90;99.90
56771;DHT22;42641;59.794;17.616;2022-07-18T05:16:54;17.90;99.90
56771;DHT22;42641;59.794;17.616;2022-07-18T05:19:21;17.90;99.90
56771;DHT22;42641;59.794;17.616;2022-07-18T05:21:47;18.00;99.90
56771;DHT22;42641;59.794;17.616;2022-07-18T05:24:13;18.10;99.90
56771;DHT22;42641;59.794;17.616;2022-07-18T05:26:40;18.00;99.90
56771;DHT22;42641;59.794;17.616;2022-07-18T05:29:06;18.10;99.90
56771;DHT22;42641;59.794;17.616;2022-07-18T05:31:33;18.30;99.90
56771;DHT22;42641;59.794;17.616;2022-07-18T05:33:59;18.50;99.90
56771;DHT22;42641;59.794;17.616;2022-07-18T05:36:25;18.60;99.90
56771;DHT22;42641;59.794;17.616;2022-07-18T05:38:52;18.70;99.90
56771;DHT22;42641;59.794;17.616;2022-07-18T05:41:18;18.80;99.90
56771;DHT22;42641;59.794;17.616;2022-07-18T05:43:45;19.00;99.90
56771;DHT22;42641;59.794;17.616;2022-07-18T05:46:11;19.20;99.90
56771;DHT22;42641;59.794;17.616;2022-07-18T05:48:37;19.30;99.90
56771;DHT22;42641;59.794;17.616;2022-07-18T05:51:06;19.30;99.90
56771;DHT22;42641;59.794;17.616;2022-07-18T05:53:33;19.40;99.90
56771;DHT22;42641;59.794;17.616;2022-07-18T05:55:59;19.50;99.90
56771;DHT22;42641;59.794;17.616;2022-07-18T05:58:26;19.60;99.90
56771;DHT22;42641;59.794;17.616;2022-07-18T06:00:52;19.60;99.90
56771;DHT22;42641;59.794;17.616;2022-07-18T06:03:20;19.70;99.90
56771;DHT22;42641;59.794;17.616;2022-07-18T06:05:46;19.70;99.90
56771;DHT22;42641;59.794;17.616;2022-07-18T06:08:13;19.70;99.90
56771;DHT22;42641;59.794;17.616;2022-07-18T06:10:39;19.80;99.90
56771;DHT22;42641;59.794;17.616;2022-07-18T06:13:05;19.90;99.90
56771;DHT22;42641;59.794;17.616;2022-07-18T06:15:32;20.00;99.90
56771;DHT22;42641;59.794;17.616;2022-07-18T06:17:58;20.10;99.90
56771;DHT22;42641;59.794;17.616;2022-07-18T06:20:24;20.40;99.90
56771;DHT22;42641;59.794;17.616;2022-07-18T06:22:51;20.60;99.90
56771;DHT22;42641;59.794;17.616;2022-07-18T06:25:17;20.80;99.90
56771;DHT22;42641;59.794;17.616;2022-07-18T06:27:44;20.80;99.90
56771;DHT22;42641;59.794;17.616;2022-07-18T06:30:11;20.90;99.90
56771;DHT22;42641;59.794;17.616;2022-07-18T06:32:39;21.10;99.90
56771;DHT22;42641;59.794;17.616;2022-07-18T06:35:06;21.30;99.90
56771;DHT22;42641;59.794;17.616;2022-07-18T06:37:33;21.40;99.90
56771;DHT22;42641;59.794;17.616;2022-07-18T06:40:00;21.50;99.90
56771;DHT22;42641;59.794;17.616;2022-07-18T06:42:26;21.60;99.90
56771;DHT22;42641;59.794;17.616;2022-07-18T06:44:52;21.70;99.90
56771;DHT22;42641;59.794;17.616;2022-07-18T06:47:19;21.70;99.90
56771;DHT22;42641;59.794;17.616;2022-07-18T06:49:45;21.80;99.90
56771;DHT22;42641;59.794;17.616;2022-07-18T06:52:12;22.00;99.90
56771;DHT22;42641;59.794;17.616;2022-07-18T06:54:40;22.00;99.90
56771;DHT22;42641;59.794;17.616;2022-07-18T06:57:07;22.00;99.90
56771;DHT22;42641;59.794;17.616;2022-07-18T06:59:33;22.10;99.90
56771;DHT22;42641;59.794;17.616;2022-07-18T07:02:00;22.10;99.90
56771;DHT22;42641;59.794;17.616;2022-07-18T07:04:26;22.00;99.90
56771;DHT22;42641;59.794;17.616;2022-07-18T07:06:53;21.80;99.90
56771;DHT22;42641;59.794;17.616;2022-07-18T07:09:19;21.60;99.90
56771;DHT22;42641;59.794;17.616;2022-07-18T07:11:45;21.60;99.90
56771;DHT22;42641;59.794;17.616;2022-07-18T07:14:12;21.60;99.90
56771;DHT22;42641;59.794;17.616;2022-07-18T07:16:38;21.60;99.90
56771;DHT22;42641;59.794;17.616;2022-07-18T07:19:05;21.70;99.90
56771;DHT22;42641;59.794;17.616;2022-07-18T07:21:31;21.90;99.90
56771;DHT22;42641;59.794;17.616;2022-07-18T07:23:57;22.10;99.90
56771;DHT22;42641;59.794;17.616;2022-07-18T07:26:24;22.30;99.90
56771;DHT22;42641;59.794;17.616;2022-07-18T07:28:50;22.50;99.90
56771;DHT22;42641;59.794;17.616;2022-07-18T07:31:16;22.60;99.90
56771;DHT22;42641;59.794;17.616;2022-07-18T07:33:43;22.60;99.90
56771;DHT22;42641;59.794;17.616;2022-07-18T07:36:11;22.40;99.90
56771;DHT22;42641;59.794;17.616;2022-07-18T07:38:37;22.40;99.90
56771;DHT22;42641;59.794;17.616;2022-07-18T07:41:04;22.60;99.90
56771;DHT22;42641;59.794;17.616;2022-07-18T07:43:30;22.70;99.90
56771;DHT22;42641;59.794;17.616;2022-07-18T07:45:57;22.90;99.90
56771;DHT22;42641;59.794;17.616;2022-07-18T07:48:23;22.90;99.90
56771;DHT22;42641;59.794;17.616;2022-07-18T07:50:50;22.80;99.90
56771;DHT22;42641;59.794;17.616;2022-07-18T07:53:17;22.80;99.90
56771;DHT22;42641;59.794;17.616;2022-07-18T07:55:44;22.70;99.90
56771;DHT22;42641;59.794;17.616;2022-07-18T07:58:10;22.80;99.90
56771;DHT22;42641;59.794;17.616;2022-07-18T08:00:37;22.90;99.90
56771;DHT22;42641;59.794;17.616;2022-07-18T08:03:06;23.10;99.90
56771;DHT22;42641;59.794;17.616;2022-07-18T08:05:35;23.30;99.90
56771;DHT22;42641;59.794;17.616;2022-07-18T08:08:04;23.40;99.90
56771;DHT22;42641;59.794;17.616;2022-07-18T08:10:32;23.60;99.90
56771;DHT22;42641;59.794;17.616;2022-07-18T08:12:58;23.70;99.90
56771;DHT22;42641;59.794;17.616;2022-07-18T08:15:25;23.70;99.90
56771;DHT22;42641;59.794;17.616;2022-07-18T08:17:52;23.50;99.90
56771;DHT22;42641;59.794;17.616;2022-07-18T08:20:19;23.40;99.90
56771;DHT22;42641;59.794;17.616;2022-07-18T08:23:15;23.40;99.90
56771;DHT22;42641;59.794;17.616;2022-07-18T08:25:44;23.30;99.90
56771;DHT22;42641;59.794;17.616;2022-07-18T08:28:11;23.30;99.90
56771;DHT22;42641;59.794;17.616;2022-07-18T08:30:38;23.30;99.90
56771;DHT22;42641;59.794;17.616;2022-07-18T08:33:06;23.40;99.90
56771;DHT22;42641;59.794;17.616;2022-07-18T08:35:33;23.40;99.90
56771;DHT22;42641;59.794;17.616;2022-07-18T08:38:01;23.50;99.90
56771;DHT22;42641;59.794;17.616;2022-07-18T08:40:27;23.60;99.60
56771;DHT22;42641;59.794;17.616;2022-07-18T08:42:55;23.70;99.90
56771;DHT22;42641;59.794;17.616;2022-07-18T08:45:24;24.00;99.90
56771;DHT22;42641;59.794;17.616;2022-07-18T08:47:51;24.30;99.90
56771;DHT22;42641;59.794;17.616;2022-07-18T08:50:18;24.40;99.70
56771;DHT22;42641;59.794;17.616;2022-07-18T08:52:45;24.20;99.20
56771;DHT22;42641;59.794;17.616;2022-07-18T08:55:12;24.00;99.90
56771;DHT22;42641;59.794;17.616;2022-07-18T08:57:38;23.90;99.90
56771;DHT22;42641;59.794;17.616;2022-07-18T09:00:06;23.80;99.90
56771;DHT22;42641;59.794;17.616;2022-07-18T09:02:33;23.60;99.90
56771;DHT22;42641;59.794;17.616;2022-07-18T09:05:01;23.50;99.80
56771;DHT22;42641;59.794;17.616;2022-07-18T09:07:30;23.40;98.80
56771;DHT22;42641;59.794;17.616;2022-07-18T09:10:00;23.40;98.70
56771;DHT22;42641;59.794;17.616;2022-07-18T09:12:27;23.40;98.90
56771;DHT22;42641;59.794;17.616;2022-07-18T09:14:54;23.40;98.70
56771;DHT22;42641;59.794;17.616;2022-07-18T09:17:23;23.40;98.90
56771;DHT22;42641;59.794;17.616;2022-07-18T09:22:27;23.50;98.60
56771;DHT22;42641;59.794;17.616;2022-07-18T09:27:38;23.60;98.90
56771;DHT22;42641;59.794;17.616;2022-07-18T09:30:28;23.80;97.50
56771;DHT22;42641;59.794;17.616;2022-07-18T09:35:35;24.20;97.90
56771;DHT22;42641;59.794;17.616;2022-07-18T09:38:07;24.20;97.90
56771;DHT22;42641;59.794;17.616;2022-07-18T09:43:05;24.20;96.10
56771;DHT22;42641;59.794;17.616;2022-07-18T09:45:35;24.10;95.50
56771;DHT22;42641;59.794;17.616;2022-07-18T09:48:05;24.20;95.50
56771;DHT22;42641;59.794;17.616;2022-07-18T09:53:23;24.10;96.00
56771;DHT22;42641;59.794;17.616;2022-07-18T09:55:53;24.00;96.40
56771;DHT22;42641;59.794;17.616;2022-07-18T09:58:22;23.80;97.60
56771;DHT22;42641;59.794;17.616;2022-07-18T10:00:49;23.50;98.50
56771;DHT22;42641;59.794;17.616;2022-07-18T10:03:17;23.40;99.10
56771;DHT22;42641;59.794;17.616;2022-07-18T10:05:48;23.10;99.90
56771;DHT22;42641;59.794;17.616;2022-07-18T10:08:17;22.90;99.90
56771;DHT22;42641;59.794;17.616;2022-07-18T10:10:46;22.70;99.90
56771;DHT22;42641;59.794;17.616;2022-07-18T10:13:13;22.40;99.90
56771;DHT22;42641;59.794;17.616;2022-07-18T10:15:42;22.10;99.90
56771;DHT22;42641;59.794;17.616;2022-07-18T10:18:14;21.80;99.90
56771;DHT22;42641;59.794;17.616;2022-07-18T10:20:49;21.80;99.90
56771;DHT22;42641;59.794;17.616;2022-07-18T10:26:04;22.30;99.90
56771;DHT22;42641;59.794;17.616;2022-07-18T10:28:31;22.30;99.90
56771;DHT22;42641;59.794;17.616;2022-07-18T10:31:12;22.30;99.90
56771;DHT22;42641;59.794;17.616;2022-07-18T10:33:46;22.40;99.90
56771;DHT22;42641;59.794;17.616;2022-07-18T10:36:16;22.40;99.90
56771;DHT22;42641;59.794;17.616;2022-07-18T10:47:10;22.60;99.90
56771;DHT22;42641;59.794;17.616;2022-07-18T10:57:36;22.70;99.90
56771;DHT22;42641;59.794;17.616;2022-07-18T11:00:12;22.80;99.90
56771;DHT22;42641;59.794;17.616;2022-07-18T11:02:47;23.00;99.90
56771;DHT22;42641;59.794;17.616;2022-07-18T11:21:24;23.70;99.90
56771;DHT22;42641;59.794;17.616;2022-07-18T11:24:08;23.90;99.80
56771;DHT22;42641;59.794;17.616;2022-07-18T11:26:38;23.90;99.90
56771;DHT22;42641;59.794;17.616;2022-07-18T11:29:06;23.90;99.90
56771;DHT22;42641;59.794;17.616;2022-07-18T11:31:56;23.80;99.90
56771;DHT22;42641;59.794;17.616;2022-07-18T11:34:24;23.90;99.90
56771;DHT22;42641;59.794;17.616;2022-07-18T11:36:51;23.90;99.90
56771;DHT22;42641;59.794;17.616;2022-07-18T11:39:36;24.20;99.90
56771;DHT22;42641;59.794;17.616;2022-07-18T11:42:03;24.20;99.90
56771;DHT22;42641;59.794;17.616;2022-07-18T11:44:30;24.10;99.90
56771;DHT22;42641;59.794;17.616;2022-07-18T11:47:08;23.80;98.20
56771;DHT22;42641;59.794;17.616;2022-07-18T11:49:36;23.50;98.10
56771;DHT22;42641;59.794;17.616;2022-07-18T11:52:04;23.40;98.20
56771;DHT22;42641;59.794;17.616;2022-07-18T11:54:30;23.20;98.40
56771;DHT22;42641;59.794;17.616;2022-07-18T11:56:58;23.20;97.20
56771;DHT22;42641;59.794;17.616;2022-07-18T11:59:37;23.20;98.20
56771;DHT22;42641;59.794;17.616;2022-07-18T12:02:04;23.40;98.20
56771;DHT22;42641;59.794;17.616;2022-07-18T12:04:30;23.40;98.50
56771;DHT22;42641;59.794;17.616;2022-07-18T12:07:17;23.50;98.70
56771;DHT22;42641;59.794;17.616;2022-07-18T12:09:45;23.60;98.80
56771;DHT22;42641;59.794;17.616;2022-07-18T12:12:13;23.70;99.50
56771;DHT22;42641;59.794;17.616;2022-07-18T12:14:40;23.70;99.90
56771;DHT22;42641;59.794;17.616;2022-07-18T12:17:07;23.70;99.90
56771;DHT22;42641;59.794;17.616;2022-07-18T12:19:39;23.60;99.80
56771;DHT22;42641;59.794;17.616;2022-07-18T12:22:08;23.50;99.80
56771;DHT22;42641;59.794;17.616;2022-07-18T12:24:36;23.40;99.90
56771;DHT22;42641;59.794;17.616;2022-07-18T12:32:26;23.10;99.70
56771;DHT22;42641;59.794;17.616;2022-07-18T12:35:03;23.00;99.60
56771;DHT22;42641;59.794;17.616;2022-07-18T12:37:31;23.00;99.40
56771;DHT22;42641;59.794;17.616;2022-07-18T12:40:05;22.90;99.90
56771;DHT22;42641;59.794;17.616;2022-07-18T12:42:37;22.90;99.10
56771;DHT22;42641;59.794;17.616;2022-07-18T12:45:05;23.00;98.80
56771;DHT22;42641;59.794;17.616;2022-07-18T12:47:32;23.20;99.10
56771;DHT22;42641;59.794;17.616;2022-07-18T12:49:59;23.30;98.40
56771;DHT22;42641;59.794;17.616;2022-07-18T12:52:25;23.40;98.20
56771;DHT22;42641;59.794;17.616;2022-07-18T12:54:52;23.50;98.40
56771;DHT22;42641;59.794;17.616;2022-07-18T12:57:19;23.50;98.30
56771;DHT22;42641;59.794;17.616;2022-07-18T12:59:46;23.40;98.30
56771;DHT22;42641;59.794;17.616;2022-07-18T13:02:13;23.30;99.50
56771;DHT22;42641;59.794;17.616;2022-07-18T13:04:40;23.30;99.80
56771;DHT22;42641;59.794;17.616;2022-07-18T13:07:07;23.20;99.90
56771;DHT22;42641;59.794;17.616;2022-07-18T13:09:33;23.10;99.90
56771;DHT22;42641;59.794;17.616;2022-07-18T13:12:00;22.90;99.90
56771;DHT22;42641;59.794;17.616;2022-07-18T13:14:26;23.00;99.90
56771;DHT22;42641;59.794;17.616;2022-07-18T13:16:53;23.00;99.90
56771;DHT22;42641;59.794;17.616;2022-07-18T13:19:20;23.10;99.90
56771;DHT22;42641;59.794;17.616;2022-07-18T13:21:47;23.00;99.90
56771;DHT22;42641;59.794;17.616;2022-07-18T13:24:14;22.90;99.90
56771;DHT22;42641;59.794;17.616;2022-07-18T13:26:41;22.90;99.90
56771;DHT22;42641;59.794;17.616;2022-07-18T13:29:08;22.90;99.90
56771;DHT22;42641;59.794;17.616;2022-07-18T13:31:35;23.00;99.90
56771;DHT22;42641;59.794;17.616;2022-07-18T13:34:03;23.00;99.90
56771;DHT22;42641;59.794;17.616;2022-07-18T13:36:30;23.10;99.50
56771;DHT22;42641;59.794;17.616;2022-07-18T13:38:59;23.20;99.90
56771;DHT22;42641;59.794;17.616;2022-07-18T13:41:28;23.50;99.90
56771;DHT22;42641;59.794;17.616;2022-07-18T13:43:55;23.80;99.00
56771;DHT22;42641;59.794;17.616;2022-07-18T13:46:21;24.20;99.10
56771;DHT22;42641;59.794;17.616;2022-07-18T13:48:48;24.40;97.90
56771;DHT22;42641;59.794;17.616;2022-07-18T13:51:16;24.40;97.80
56771;DHT22;42641;59.794;17.616;2022-07-18T13:53:43;24.80;98.10
56771;DHT22;42641;59.794;17.616;2022-07-18T13:56:09;25.30;98.60
56771;DHT22;42641;59.794;17.616;2022-07-18T13:58:35;25.60;97.60
56771;DHT22;42641;59.794;17.616;2022-07-18T14:01:02;25.60;96.40
56771;DHT22;42641;59.794;17.616;2022-07-18T14:03:28;25.80;96.40
56771;DHT22;42641;59.794;17.616;2022-07-18T14:05:55;26.50;96.20
56771;DHT22;42641;59.794;17.616;2022-07-18T14:08:21;26.90;95.90
56771;DHT22;42641;59.794;17.616;2022-07-18T14:10:47;26.60;94.60
56771;DHT22;42641;59.794;17.616;2022-07-18T14:13:14;26.00;95.60
56771;DHT22;42641;59.794;17.616;2022-07-18T14:15:40;25.20;95.30
56771;DHT22;42641;59.794;17.616;2022-07-18T14:18:07;24.90;95.90
56771;DHT22;42641;59.794;17.616;2022-07-18T14:20:33;24.70;96.30
56771;DHT22;42641;59.794;17.616;2022-07-18T14:23:00;24.40;96.80
56771;DHT22;42641;59.794;17.616;2022-07-18T14:25:26;24.30;97.60
56771;DHT22;42641;59.794;17.616;2022-07-18T14:27:52;24.20;97.70
56771;DHT22;42641;59.794;17.616;2022-07-18T14:30:19;23.90;98.20
56771;DHT22;42641;59.794;17.616;2022-07-18T14:32:45;23.70;98.00
56771;DHT22;42641;59.794;17.616;2022-07-18T14:35:12;22.70;99.90
56771;DHT22;42641;59.794;17.616;2022-07-18T14:37:38;21.60;99.90
56771;DHT22;42641;59.794;17.616;2022-07-18T14:40:05;20.80;99.90
56771;DHT22;42641;59.794;17.616;2022-07-18T14:42:32;20.60;99.90
56771;DHT22;42641;59.794;17.616;2022-07-18T14:44:58;20.80;99.90
56771;DHT22;42641;59.794;17.616;2022-07-18T14:47:25;21.50;99.90
56771;DHT22;42641;59.794;17.616;2022-07-18T14:49:51;22.50;99.90
56771;DHT22;42641;59.794;17.616;2022-07-18T14:52:19;23.20;99.90
56771;DHT22;42641;59.794;17.616;2022-07-18T14:54:45;23.50;99.90
56771;DHT22;42641;59.794;17.616;2022-07-18T14:57:12;23.80;99.90
56771;DHT22;42641;59.794;17.616;2022-07-18T14:59:42;23.80;99.90
56771;DHT22;42641;59.794;17.616;2022-07-18T15:02:08;23.80;99.90
56771;DHT22;42641;59.794;17.616;2022-07-18T15:04:35;23.70;99.90
56771;DHT22;42641;59.794;17.616;2022-07-18T15:07:03;23.50;99.90
56771;DHT22;42641;59.794;17.616;2022-07-18T15:09:29;23.60;99.90
56771;DHT22;42641;59.794;17.616;2022-07-18T15:11:56;23.70;99.90
56771;DHT22;42641;59.794;17.616;2022-07-18T15:14:22;24.20;99.90
56771;DHT22;42641;59.794;17.616;2022-07-18T15:16:50;24.80;99.90
56771;DHT22;42641;59.794;17.616;2022-07-18T15:19:16;25.30;99.90
56771;DHT22;42641;59.794;17.616;2022-07-18T15:21:42;25.40;99.90
56771;DHT22;42641;59.794;17.616;2022-07-18T15:24:09;25.60;99.30
56771;DHT22;42641;59.794;17.616;2022-07-18T15:26:35;25.40;99.80
56771;DHT22;42641;59.794;17.616;2022-07-18T15:29:02;25.30;99.90
56771;DHT22;42641;59.794;17.616;2022-07-18T15:31:28;25.10;99.80
56771;DHT22;42641;59.794;17.616;2022-07-18T15:33:56;25.30;99.50
56771;DHT22;42641;59.794;17.616;2022-07-18T15:36:22;25.60;99.10
56771;DHT22;42641;59.794;17.616;2022-07-18T15:38:48;25.60;97.50
56771;DHT22;42641;59.794;17.616;2022-07-18T15:41:15;25.30;97.60
56771;DHT22;42641;59.794;17.616;2022-07-18T15:43:46;25.10;97.90
56771;DHT22;42641;59.794;17.616;2022-07-18T15:46:13;25.00;97.80
56771;DHT22;42641;59.794;17.616;2022-07-18T15:48:46;24.80;97.70
56771;DHT22;42641;59.794;17.616;2022-07-18T15:51:13;24.60;98.30
56771;DHT22;42641;59.794;17.616;2022-07-18T15:53:40;24.80;98.20
56771;DHT22;42641;59.794;17.616;2022-07-18T15:56:07;25.30;98.00
56771;DHT22;42641;59.794;17.616;2022-07-18T15:58:34;25.50;97.30
56771;DHT22;42641;59.794;17.616;2022-07-18T16:01:00;25.40;97.30
56771;DHT22;42641;59.794;17.616;2022-07-18T16:03:27;25.20;97.70
56771;DHT22;42641;59.794;17.616;2022-07-18T16:05:54;25.00;99.10
56771;DHT22;42641;59.794;17.616;2022-07-18T16:08:24;24.80;99.70
56771;DHT22;42641;59.794;17.616;2022-07-18T16:10:50;24.60;99.50
56771;DHT22;42641;59.794;17.616;2022-07-18T16:13:17;24.30;99.30